Time;durP1;ratioP1;P1;durP2;ratioP2;P2;SDS_P1;SDS_P2;PMS_P1;PMS_P2;Temp;Humidity;BMP_temperature;BMP_pressure;BME280_temperature;BME280_humidity;BME280_pressure;Samples;Min_cycle;Max_cycle;Signal;HPM_P1;HPM_P2
2021/11/15 00:02:09;;;;;;;99.55;35.75;;;6.00;99.90;;;;;;5060535;28;20033;-63
2021/11/15 00:04:35;;;;;;;103.68;35.40;;;6.00;99.90;;;;;;5060690;28;20133;-64
2021/11/15 00:07:01;;;;;;;111.05;36.78;;;6.10;99.90;;;;;;5060660;28;20111;-64
2021/11/15 00:09:26;;;;;;;97.10;33.83;;;6.10;99.90;;;;;;5060685;28;20044;-64
2021/11/15 00:11:52;;;;;;;104.10;35.33;;;6.00;99.90;;;;;;5041962;28;20028;-64
2021/11/15 00:14:17;;;;;;;104.20;33.53;;;6.00;99.90;;;;;;5058909;28;20039;-64
2021/11/15 00:16:43;;;;;;;101.95;33.22;;;5.90;99.90;;;;;;5060196;28;20021;-64
2021/11/15 00:19:08;;;;;;;101.10;34.15;;;5.90;99.90;;;;;;5059208;28;20036;-64
2021/11/15 00:21:34;;;;;;;104.57;35.85;;;5.90;99.90;;;;;;5060372;28;20044;-64
2021/11/15 00:23:59;;;;;;;103.07;35.33;;;5.90;99.90;;;;;;5059746;28;20377;-64
2021/11/15 00:26:25;;;;;;;107.43;35.38;;;6.00;99.90;;;;;;5060755;28;20032;-64
2021/11/15 00:28:50;;;;;;;99.25;33.58;;;6.10;99.90;;;;;;5059954;28;20028;-64
2021/11/15 00:31:16;;;;;;;99.07;35.22;;;6.10;99.90;;;;;;5059530;28;20102;-64
2021/11/15 00:33:41;;;;;;;104.75;34.55;;;6.30;99.90;;;;;;5059756;28;20127;-64
2021/11/15 00:36:06;;;;;;;99.95;34.30;;;6.20;99.90;;;;;;5059030;28;20038;-64
2021/11/15 00:38:33;;;;;;;97.72;34.20;;;6.10;99.90;;;;;;5059274;28;20943;-64
2021/11/15 00:40:59;;;;;;;101.93;34.53;;;6.10;99.90;;;;;;5041701;28;20033;-64
2021/11/15 00:43:24;;;;;;;92.45;31.95;;;7.60;99.90;;;;;;5059434;28;20067;-64
2021/11/15 00:45:50;;;;;;;90.78;33.63;;;6.10;99.90;;;;;;5059477;28;20105;-63
2021/11/15 00:48:15;;;;;;;95.72;33.75;;;6.10;99.90;;;;;;5059356;28;20109;-63
2021/11/15 00:50:40;;;;;;;93.97;33.50;;;6.10;99.90;;;;;;5059483;28;20036;-63
2021/11/15 00:53:06;;;;;;;88.00;32.15;;;6.10;99.90;;;;;;5059629;28;20041;-63
2021/11/15 00:55:32;;;;;;;92.45;32.10;;;6.20;99.90;;;;;;5058930;28;20085;-63
2021/11/15 00:57:57;;;;;;;84.82;32.22;;;6.10;99.90;;;;;;5059797;28;20426;-63
2021/11/15 01:00:24;;;;;;;88.75;32.13;;;6.10;99.90;;;;;;5059508;28;20033;-64
2021/11/15 01:02:50;;;;;;;95.60;32.75;;;6.10;99.90;;;;;;5058790;28;20139;-63
2021/11/15 01:05:16;;;;;;;95.85;33.95;;;6.10;99.90;;;;;;5041582;28;20047;-63
2021/11/15 01:07:41;;;;;;;100.18;34.47;;;6.10;99.90;;;;;;5059144;28;20046;-64
2021/11/15 01:10:07;;;;;;;92.25;32.78;;;6.10;99.90;;;;;;5059009;28;20515;-64
2021/11/15 01:12:33;;;;;;;91.95;31.85;;;6.20;99.90;;;;;;5059541;28;20036;-63
2021/11/15 01:14:58;;;;;;;90.28;31.52;;;6.10;99.90;;;;;;5040769;28;20029;-64
2021/11/15 01:17:24;;;;;;;91.47;32.42;;;6.20;99.90;;;;;;5058667;28;20032;-64
2021/11/15 01:19:49;;;;;;;94.80;34.28;;;6.30;99.90;;;;;;5059197;28;20650;-63
2021/11/15 01:22:15;;;;;;;92.18;33.05;;;6.30;99.90;;;;;;5057451;28;20029;-63
2021/11/15 01:24:41;;;;;;;92.68;32.83;;;6.30;99.90;;;;;;5058823;28;20060;-64
2021/11/15 01:27:06;;;;;;;86.72;31.52;;;6.30;99.90;;;;;;5058551;28;20113;-63
2021/11/15 01:29:32;;;;;;;81.32;29.30;;;6.30;99.90;;;;;;5056813;28;20067;-63
2021/11/15 01:32:00;;;;;;;91.15;33.65;;;6.30;99.90;;;;;;5059371;28;20813;-64
2021/11/15 01:34:25;;;;;;;94.07;33.35;;;6.40;99.90;;;;;;5058735;28;20036;-64
2021/11/15 01:36:51;;;;;;;90.82;32.42;;;6.40;99.90;;;;;;5040459;28;20032;-64
2021/11/15 01:39:16;;;;;;;86.10;33.20;;;6.30;99.90;;;;;;5025031;28;20559;-64
2021/11/15 01:41:41;;;;;;;81.20;30.55;;;6.30;99.90;;;;;;5059258;28;20041;-64
2021/11/15 01:44:07;;;;;;;80.00;29.42;;;6.30;99.90;;;;;;5059742;28;20560;-64
2021/11/15 01:46:33;;;;;;;79.15;29.80;;;6.30;99.90;;;;;;5060352;28;20792;-64
2021/11/15 01:48:58;;;;;;;76.25;28.75;;;6.40;99.90;;;;;;5059284;28;20060;-64
2021/11/15 01:51:24;;;;;;;88.63;31.83;;;6.40;99.90;;;;;;5059743;28;20028;-64
2021/11/15 01:53:49;;;;;;;80.80;30.60;;;6.40;99.90;;;;;;5058366;28;20431;-64
2021/11/15 01:56:14;;;;;;;77.72;30.05;;;6.60;99.90;;;;;;5040441;28;20112;-65
2021/11/15 01:58:40;;;;;;;87.35;30.80;;;6.50;99.90;;;;;;5058501;28;20052;-64
2021/11/15 02:01:05;;;;;;;80.15;29.70;;;6.70;99.90;;;;;;5057227;28;20036;-64
2021/11/15 02:03:32;;;;;;;89.97;32.50;;;6.30;99.90;;;;;;5057784;28;20523;-64
2021/11/15 02:05:57;;;;;;;79.20;30.27;;;6.40;99.90;;;;;;5057784;28;20043;-64
2021/11/15 02:08:23;;;;;;;86.55;30.58;;;7.10;99.90;;;;;;5038696;28;20028;-64
2021/11/15 02:10:48;;;;;;;80.97;31.00;;;6.50;99.90;;;;;;5057443;28;20555;-64
2021/11/15 02:13:14;;;;;;;76.45;28.33;;;6.50;99.90;;;;;;5057853;28;20064;-64
2021/11/15 02:15:39;;;;;;;82.32;29.33;;;6.40;99.90;;;;;;5057616;28;20032;-64
2021/11/15 02:18:05;;;;;;;80.10;30.48;;;6.40;99.90;;;;;;5058250;28;20129;-64
2021/11/15 02:20:30;;;;;;;80.05;30.27;;;6.40;99.90;;;;;;5058350;28;20032;-64
2021/11/15 02:22:56;;;;;;;80.80;31.50;;;6.40;99.90;;;;;;5058651;28;20040;-64
2021/11/15 02:25:21;;;;;;;84.25;32.08;;;6.40;99.90;;;;;;5058854;28;20059;-64
2021/11/15 02:27:47;;;;;;;77.03;29.45;;;6.40;99.90;;;;;;5058343;28;20044;-64
2021/11/15 02:30:12;;;;;;;84.57;31.60;;;6.40;99.90;;;;;;5058266;28;20037;-64
2021/11/15 02:32:37;;;;;;;84.35;31.27;;;6.40;99.90;;;;;;5058662;28;20074;-64
2021/11/15 02:35:03;;;;;;;79.95;29.35;;;6.40;99.90;;;;;;5058987;28;20492;-64
2021/11/15 02:37:28;;;;;;;85.95;32.45;;;6.40;99.90;;;;;;5057193;28;20754;-64
2021/11/15 02:39:54;;;;;;;75.68;29.70;;;6.40;99.90;;;;;;5058274;28;20097;-64
2021/11/15 02:42:19;;;;;;;80.13;29.67;;;6.40;99.90;;;;;;5058760;28;20119;-64
2021/11/15 02:44:45;;;;;;;74.22;30.17;;;6.40;99.90;;;;;;5058329;28;20047;-64
2021/11/15 02:47:10;;;;;;;78.05;31.20;;;6.40;99.90;;;;;;5057766;28;20036;-64
2021/11/15 02:49:36;;;;;;;79.53;32.15;;;6.40;99.90;;;;;;5058421;28;20048;-64
2021/11/15 02:52:01;;;;;;;76.05;30.08;;;6.40;99.90;;;;;;5058571;28;20115;-64
2021/11/15 02:54:27;;;;;;;78.00;30.65;;;6.40;99.90;;;;;;5057542;28;20029;-64
2021/11/15 02:56:52;;;;;;;79.68;33.03;;;6.50;99.90;;;;;;5057378;28;20094;-64
2021/11/15 02:59:18;;;;;;;77.80;29.83;;;6.30;99.90;;;;;;5056915;28;20028;-64
2021/11/15 03:01:43;;;;;;;78.45;30.60;;;6.40;99.90;;;;;;5057854;28;20067;-64
2021/11/15 03:04:08;;;;;;;88.22;33.08;;;6.40;99.90;;;;;;5058128;28;20040;-64
2021/11/15 03:06:34;;;;;;;80.00;32.53;;;6.40;99.90;;;;;;5056819;28;20048;-64
2021/11/15 03:08:59;;;;;;;81.38;31.17;;;6.30;99.90;;;;;;5057332;28;20112;-64
2021/11/15 03:11:25;;;;;;;79.47;32.13;;;6.50;99.90;;;;;;5058064;28;20093;-64
2021/11/15 03:13:50;;;;;;;77.22;30.42;;;6.30;99.90;;;;;;5056626;28;20719;-64
2021/11/15 03:16:16;;;;;;;77.30;30.98;;;6.40;99.90;;;;;;5057899;28;20086;-64
2021/11/15 03:18:41;;;;;;;87.70;33.85;;;6.40;99.90;;;;;;5057018;28;20047;-64
2021/11/15 03:21:07;;;;;;;94.35;33.05;;;6.40;99.90;;;;;;5057216;28;20043;-64
2021/11/15 03:23:32;;;;;;;79.03;31.13;;;6.40;99.90;;;;;;5039710;28;20063;-64
2021/11/15 03:25:58;;;;;;;87.72;32.45;;;6.40;99.90;;;;;;5056864;28;20932;-64
2021/11/15 03:28:23;;;;;;;86.35;32.38;;;6.40;99.90;;;;;;5057105;28;20036;-64
2021/11/15 03:30:49;;;;;;;85.95;31.58;;;6.40;99.90;;;;;;5057676;28;20456;-64
2021/11/15 03:33:14;;;;;;;86.43;33.63;;;6.40;99.90;;;;;;5056994;28;20020;-64
2021/11/15 03:35:40;;;;;;;79.03;30.73;;;6.30;99.90;;;;;;5057100;28;20029;-64
2021/11/15 03:38:05;;;;;;;78.28;31.13;;;6.40;99.90;;;;;;5056799;28;20120;-64
2021/11/15 03:40:31;;;;;;;83.20;32.05;;;6.40;99.90;;;;;;5056453;28;20025;-72
2021/11/15 03:42:56;;;;;;;79.13;32.75;;;6.30;99.90;;;;;;5056720;28;20861;-72
2021/11/15 03:45:22;;;;;;;82.95;31.38;;;6.30;99.90;;;;;;5056871;28;20032;-72
2021/11/15 03:47:47;;;;;;;77.78;32.25;;;6.30;99.90;;;;;;5056262;28;20804;-72
2021/11/15 03:50:13;;;;;;;82.30;32.83;;;6.10;99.90;;;;;;5037861;28;20036;-73
2021/11/15 03:52:38;;;;;;;81.03;31.17;;;6.20;99.90;;;;;;5057100;28;20036;-72
2021/11/15 03:55:04;;;;;;;79.60;32.20;;;6.20;99.90;;;;;;5056937;28;20028;-72
2021/11/15 03:57:29;;;;;;;78.80;32.40;;;6.10;99.90;;;;;;5056691;28;20043;-72
2021/11/15 03:59:55;;;;;;;81.97;31.75;;;6.10;99.90;;;;;;5047891;28;20101;-72
2021/11/15 04:02:22;;;;;;;80.40;31.83;;;6.20;99.90;;;;;;5038918;28;20044;-73
2021/11/15 04:04:51;;;;;;;73.82;32.40;;;6.20;99.90;;;;;;5056712;28;20098;-72
2021/11/15 04:07:26;;;;;;;76.90;31.85;;;6.20;99.90;;;;;;5053311;28;20044;-72
2021/11/15 04:09:52;;;;;;;82.03;32.28;;;6.00;99.90;;;;;;5056890;28;20072;-72
2021/11/15 04:12:18;;;;;;;71.93;30.80;;;6.20;99.90;;;;;;5036187;28;20135;-72
2021/11/15 04:14:43;;;;;;;78.45;31.35;;;6.20;99.90;;;;;;5056932;28;20544;-72
2021/11/15 04:17:09;;;;;;;77.82;32.13;;;6.10;99.90;;;;;;5056575;28;20059;-71
2021/11/15 04:19:34;;;;;;;80.55;30.67;;;6.80;99.90;;;;;;5056412;28;20032;-71
2021/11/15 04:22:00;;;;;;;81.07;31.52;;;6.20;99.90;;;;;;5057230;28;20114;-71
2021/11/15 04:24:25;;;;;;;80.15;30.50;;;6.20;99.90;;;;;;5057372;28;20032;-72
2021/11/15 04:26:51;;;;;;;83.07;31.75;;;6.30;99.90;;;;;;5056358;28;20032;-71
2021/11/15 04:29:16;;;;;;;75.68;30.52;;;6.40;99.90;;;;;;5038210;28;20500;-71
2021/11/15 04:31:42;;;;;;;78.80;31.05;;;6.30;99.90;;;;;;5056958;28;20213;-71
2021/11/15 04:34:07;;;;;;;71.13;29.95;;;6.30;99.90;;;;;;5056224;28;20039;-71
2021/11/15 04:36:33;;;;;;;74.55;31.25;;;7.30;99.90;;;;;;5055840;28;20028;-71
2021/11/15 04:38:59;;;;;;;75.47;31.42;;;6.30;99.90;;;;;;5058205;28;20032;-72
2021/11/15 04:41:24;;;;;;;74.40;30.48;;;6.30;99.90;;;;;;5059909;28;20028;-72
2021/11/15 04:43:50;;;;;;;81.22;32.40;;;6.30;99.90;;;;;;5059536;28;20068;-72
2021/11/15 04:46:15;;;;;;;76.90;31.80;;;6.30;99.90;;;;;;5041015;28;20056;-72
2021/11/15 04:48:42;;;;;;;77.07;32.92;;;6.30;99.90;;;;;;5040675;28;20028;-72
2021/11/15 04:51:08;;;;;;;82.60;31.83;;;6.30;99.90;;;;;;5058968;28;20522;-72
2021/11/15 04:53:33;;;;;;;77.18;31.77;;;6.20;99.90;;;;;;5059289;28;20024;-72
2021/11/15 04:55:59;;;;;;;79.60;31.75;;;6.20;99.90;;;;;;5059546;28;20416;-72
2021/11/15 04:58:24;;;;;;;84.60;32.90;;;6.10;99.90;;;;;;5058566;28;20032;-72
2021/11/15 05:00:50;;;;;;;87.70;34.47;;;6.10;99.90;;;;;;5059065;28;20024;-72
2021/11/15 05:03:17;;;;;;;82.88;32.13;;;6.10;99.90;;;;;;5025090;28;20037;-72
2021/11/15 05:05:42;;;;;;;83.65;32.88;;;6.10;99.90;;;;;;5038828;28;20032;-72
2021/11/15 05:08:08;;;;;;;81.90;32.00;;;6.20;99.90;;;;;;5040673;28;20073;-72
2021/11/15 05:10:33;;;;;;;85.53;33.00;;;6.20;99.90;;;;;;5059512;28;20682;-72
2021/11/15 05:13:01;;;;;;;76.07;31.42;;;6.30;99.90;;;;;;5040915;28;20101;-72
2021/11/15 05:15:27;;;;;;;84.55;32.03;;;6.40;99.90;;;;;;5059215;28;20415;-73
2021/11/15 05:17:52;;;;;;;79.03;31.98;;;6.30;99.90;;;;;;5058991;28;20484;-72
2021/11/15 05:20:18;;;;;;;92.45;34.35;;;6.30;99.90;;;;;;5057870;28;20834;-72
2021/11/15 05:22:44;;;;;;;78.85;33.00;;;6.30;99.90;;;;;;5059135;28;20036;-72
2021/11/15 05:25:09;;;;;;;85.85;34.05;;;6.30;99.90;;;;;;5058700;28;20101;-72
2021/11/15 05:27:35;;;;;;;78.30;32.33;;;6.20;99.90;;;;;;5057361;28;20036;-72
2021/11/15 05:30:00;;;;;;;95.10;33.92;;;6.10;99.90;;;;;;5058830;28;20039;-72
2021/11/15 05:32:25;;;;;;;88.47;33.22;;;6.20;99.90;;;;;;5058106;28;20040;-72
2021/11/15 05:34:51;;;;;;;81.13;34.22;;;6.20;99.90;;;;;;5058687;28;20354;-72
2021/11/15 05:37:17;;;;;;;83.65;34.10;;;6.20;99.90;;;;;;5041442;28;20071;-73
2021/11/15 05:39:42;;;;;;;90.63;35.38;;;6.10;99.90;;;;;;5059396;28;20044;-73
2021/11/15 05:42:08;;;;;;;82.43;33.67;;;6.10;99.90;;;;;;5060645;28;20037;-73
2021/11/15 05:44:33;;;;;;;87.75;35.70;;;6.10;99.90;;;;;;5060914;28;20028;-73
2021/11/15 05:46:58;;;;;;;88.05;34.38;;;6.00;99.90;;;;;;5060865;28;20673;-73
2021/11/15 05:49:24;;;;;;;88.35;34.97;;;6.10;99.90;;;;;;5041885;28;20047;-72
2021/11/15 05:51:50;;;;;;;88.43;35.60;;;6.10;99.90;;;;;;5060971;28;20036;-72
2021/11/15 05:54:18;;;;;;;95.15;36.20;;;6.10;99.90;;;;;;5060916;28;20052;-72
2021/11/15 05:56:43;;;;;;;88.55;35.95;;;6.10;99.90;;;;;;5059253;28;20032;-73
2021/11/15 05:59:09;;;;;;;91.38;35.58;;;6.20;99.90;;;;;;5023203;28;20039;-73
2021/11/15 06:01:35;;;;;;;93.65;35.80;;;6.10;99.90;;;;;;5058807;28;20054;-72
2021/11/15 06:04:00;;;;;;;93.03;36.03;;;6.20;99.90;;;;;;5035780;28;20043;-72
2021/11/15 06:06:25;;;;;;;87.60;34.53;;;6.20;99.90;;;;;;5039773;28;20032;-72
2021/11/15 06:08:51;;;;;;;85.53;35.72;;;6.20;99.90;;;;;;5057648;28;20043;-72
2021/11/15 06:11:18;;;;;;;97.30;38.38;;;6.20;99.90;;;;;;5057102;28;20079;-72
2021/11/15 06:13:44;;;;;;;95.90;36.88;;;6.20;99.90;;;;;;5057618;28;20118;-72
2021/11/15 06:16:09;;;;;;;96.97;37.17;;;6.10;99.90;;;;;;5057096;28;20706;-72
2021/11/15 06:18:36;;;;;;;97.15;37.38;;;6.10;99.90;;;;;;5057674;28;20059;-72
2021/11/15 06:21:02;;;;;;;99.93;40.13;;;6.20;99.90;;;;;;5059006;28;20028;-72
2021/11/15 06:23:27;;;;;;;92.80;36.50;;;6.10;99.90;;;;;;5059387;28;20649;-72
2021/11/15 06:25:53;;;;;;;94.70;36.40;;;6.10;99.90;;;;;;5058035;28;20488;-72
2021/11/15 06:28:18;;;;;;;89.55;35.88;;;6.10;99.90;;;;;;5059108;28;20554;-72
2021/11/15 06:30:44;;;;;;;93.15;38.38;;;6.10;99.90;;;;;;5059499;28;20107;-72
2021/11/15 06:33:09;;;;;;;100.95;38.45;;;6.00;99.90;;;;;;5058776;28;20424;-71
2021/11/15 06:35:35;;;;;;;106.75;39.35;;;6.00;99.90;;;;;;5040734;28;20029;-72
2021/11/15 06:38:00;;;;;;;102.82;38.90;;;6.00;99.90;;;;;;5058153;28;20033;-72
2021/11/15 06:40:26;;;;;;;96.40;37.08;;;5.90;99.90;;;;;;5058351;28;20036;-72
2021/11/15 06:42:52;;;;;;;102.60;39.30;;;5.90;99.90;;;;;;5059380;28;20495;-72
2021/11/15 06:45:18;;;;;;;108.70;40.13;;;5.90;99.90;;;;;;5058223;28;20051;-72
2021/11/15 06:47:43;;;;;;;105.20;39.13;;;5.90;99.90;;;;;;5057743;28;20062;-72
2021/11/15 06:50:08;;;;;;;98.72;37.83;;;6.00;99.90;;;;;;5058495;28;20735;-72
2021/11/15 06:52:34;;;;;;;106.55;40.00;;;6.00;99.90;;;;;;5057864;28;20467;-72
2021/11/15 06:54:59;;;;;;;100.07;36.67;;;6.00;99.90;;;;;;5056174;28;20036;-72
2021/11/15 06:57:26;;;;;;;102.43;37.80;;;5.90;99.90;;;;;;5038864;28;20127;-72
2021/11/15 06:59:52;;;;;;;98.72;37.67;;;6.00;99.90;;;;;;5057336;28;20021;-72
2021/11/15 07:02:17;;;;;;;99.75;37.53;;;6.10;99.90;;;;;;5058075;28;20091;-72
2021/11/15 07:04:43;;;;;;;98.15;36.63;;;6.10;99.90;;;;;;5037833;28;20032;-64
2021/11/15 07:07:08;;;;;;;103.10;38.40;;;6.10;99.90;;;;;;5057632;28;20033;-64
2021/11/15 07:09:34;;;;;;;98.95;36.03;;;6.20;99.90;;;;;;5057841;28;20074;-64
2021/11/15 07:11:59;;;;;;;106.35;38.08;;;6.20;99.90;;;;;;5057147;28;20523;-64
2021/11/15 07:14:25;;;;;;;107.20;39.40;;;6.10;99.90;;;;;;5057828;28;20067;-64
2021/11/15 07:16:50;;;;;;;97.70;37.83;;;6.00;99.90;;;;;;5035620;28;20027;-64
2021/11/15 07:19:16;;;;;;;99.90;37.83;;;6.00;99.90;;;;;;5057087;28;20491;-64
2021/11/15 07:21:41;;;;;;;100.85;39.17;;;6.00;99.90;;;;;;5058274;28;20135;-64
2021/11/15 07:24:07;;;;;;;109.30;38.35;;;6.00;99.90;;;;;;5039243;28;20041;-64
2021/11/15 07:26:32;;;;;;;105.82;38.05;;;6.10;99.90;;;;;;5057419;28;20770;-64
2021/11/15 07:28:58;;;;;;;98.57;37.05;;;6.10;99.90;;;;;;5056698;28;20119;-64
2021/11/15 07:31:23;;;;;;;97.72;37.33;;;6.10;99.90;;;;;;5057183;28;20079;-64
2021/11/15 07:33:49;;;;;;;93.32;38.45;;;6.00;99.90;;;;;;5057554;28;20090;-64
2021/11/15 07:36:14;;;;;;;98.90;37.35;;;6.00;99.90;;;;;;5039262;28;20045;-64
2021/11/15 07:38:40;;;;;;;104.88;38.50;;;6.00;99.90;;;;;;5056602;28;20042;-64
2021/11/15 07:41:05;;;;;;;92.07;37.33;;;6.00;99.90;;;;;;5057096;28;20567;-64
2021/11/15 07:43:31;;;;;;;105.55;37.58;;;5.50;99.90;;;;;;5057133;28;20502;-64
2021/11/15 07:45:56;;;;;;;96.20;36.83;;;6.00;99.90;;;;;;5057116;28;20059;-64
2021/11/15 07:48:22;;;;;;;97.90;38.05;;;6.00;99.90;;;;;;5037495;28;20670;-64
2021/11/15 07:50:48;;;;;;;101.90;37.63;;;6.00;99.90;;;;;;5056970;28;20477;-64
2021/11/15 07:53:13;;;;;;;97.00;37.20;;;6.00;99.90;;;;;;5057432;28;20690;-64
2021/11/15 07:55:41;;;;;;;94.22;35.65;;;6.10;99.90;;;;;;5056987;28;20029;-64
2021/11/15 07:58:08;;;;;;;99.97;37.53;;;6.10;99.90;;;;;;5055045;28;20070;-64
2021/11/15 08:00:34;;;;;;;93.47;35.85;;;6.10;99.90;;;;;;5056864;28;20050;-64
2021/11/15 08:02:59;;;;;;;87.63;34.70;;;6.10;99.90;;;;;;5038331;28;20028;-64
2021/11/15 08:05:25;;;;;;;95.45;36.08;;;6.10;99.90;;;;;;5034253;28;20741;-64
2021/11/15 08:07:50;;;;;;;96.55;36.70;;;6.10;99.90;;;;;;5056672;28;20044;-64
2021/11/15 08:10:15;;;;;;;93.10;36.80;;;6.10;99.90;;;;;;5055748;28;20071;-64
2021/11/15 08:12:41;;;;;;;83.85;34.25;;;6.20;99.90;;;;;;5059202;28;20039;-64
2021/11/15 08:15:08;;;;;;;90.68;34.50;;;6.30;99.90;;;;;;5043035;28;20025;-64
2021/11/15 08:17:33;;;;;;;86.10;34.75;;;6.30;99.90;;;;;;5059400;28;20119;-64
2021/11/15 08:19:59;;;;;;;89.80;33.97;;;6.40;99.90;;;;;;5056223;28;20036;-64
2021/11/15 08:22:24;;;;;;;90.32;33.78;;;6.30;99.90;;;;;;5060655;28;20447;-64
2021/11/15 08:24:50;;;;;;;82.50;31.02;;;6.30;99.90;;;;;;5041805;28;20876;-64
2021/11/15 08:27:15;;;;;;;79.18;31.10;;;6.30;99.90;;;;;;5042121;28;20044;-64
2021/11/15 08:29:43;;;;;;;76.95;28.98;;;6.20;99.90;;;;;;5062414;28;20777;-64
2021/11/15 08:32:08;;;;;;;76.60;31.08;;;6.30;99.90;;;;;;5058916;28;20037;-64
2021/11/15 08:34:34;;;;;;;73.57;29.80;;;6.30;99.90;;;;;;5042408;28;20533;-64
2021/11/15 08:37:00;;;;;;;77.50;30.15;;;6.30;99.90;;;;;;5041331;28;20054;-64
2021/11/15 08:39:25;;;;;;;78.68;30.70;;;6.30;99.90;;;;;;5040693;28;20074;-64
2021/11/15 08:41:51;;;;;;;76.97;31.05;;;6.40;99.90;;;;;;5042172;28;20838;-64
2021/11/15 08:44:17;;;;;;;75.65;29.63;;;6.40;99.90;;;;;;5058934;28;20036;-64
2021/11/15 08:46:44;;;;;;;72.90;29.25;;;6.40;99.90;;;;;;5059816;28;20040;-64
2021/11/15 08:49:09;;;;;;;74.38;29.42;;;6.40;99.90;;;;;;5059242;28;20024;-64
2021/11/15 08:51:36;;;;;;;78.45;29.55;;;6.50;99.90;;;;;;5058761;28;20058;-64
2021/11/15 08:54:01;;;;;;;78.90;29.20;;;6.60;99.90;;;;;;5041516;28;20024;-64
2021/11/15 08:56:27;;;;;;;76.38;29.80;;;6.60;99.90;;;;;;5058695;28;20575;-64
2021/11/15 08:58:52;;;;;;;78.95;29.80;;;6.60;99.90;;;;;;5057954;28;20027;-64
2021/11/15 09:01:18;;;;;;;78.57;30.33;;;6.60;99.90;;;;;;5057963;28;20042;-64
2021/11/15 09:03:44;;;;;;;79.32;31.52;;;6.50;99.90;;;;;;5059286;28;20447;-64
2021/11/15 09:06:10;;;;;;;72.28;29.20;;;6.40;99.90;;;;;;5059546;28;20028;-64
2021/11/15 09:08:35;;;;;;;68.60;28.08;;;6.50;99.90;;;;;;5058733;28;20024;-64
2021/11/15 09:11:01;;;;;;;71.00;28.42;;;6.50;99.90;;;;;;5040408;28;20461;-64
2021/11/15 09:13:28;;;;;;;69.45;28.35;;;6.50;99.90;;;;;;5040226;28;20658;-64
2021/11/15 09:15:53;;;;;;;73.20;28.27;;;6.50;99.90;;;;;;5039701;28;20094;-64
2021/11/15 09:18:19;;;;;;;71.22;28.95;;;6.50;99.90;;;;;;5054845;28;20039;-64
2021/11/15 09:20:44;;;;;;;68.25;26.02;;;6.50;99.90;;;;;;5058475;28;20033;-64
2021/11/15 09:23:10;;;;;;;66.68;27.50;;;6.50;99.90;;;;;;5056979;28;20145;-64
2021/11/15 09:25:35;;;;;;;73.00;27.55;;;6.50;99.90;;;;;;5058253;28;20097;-64
2021/11/15 09:28:01;;;;;;;69.70;26.60;;;6.50;99.90;;;;;;5036179;28;20037;-64
2021/11/15 09:30:26;;;;;;;64.63;25.45;;;6.70;99.90;;;;;;5057140;28;20047;-65
2021/11/15 09:32:52;;;;;;;65.97;24.50;;;6.60;99.90;;;;;;5058850;28;20040;-64
2021/11/15 09:35:17;;;;;;;68.18;26.45;;;6.70;99.90;;;;;;5058966;28;20033;-64
2021/11/15 09:37:44;;;;;;;68.20;25.63;;;6.60;99.90;;;;;;5059369;28;20826;-64
2021/11/15 09:40:09;;;;;;;66.35;24.45;;;6.60;99.90;;;;;;5057164;28;20087;-64
2021/11/15 09:42:35;;;;;;;63.10;24.98;;;6.50;99.90;;;;;;5060238;28;20524;-64
2021/11/15 09:45:02;;;;;;;71.65;25.75;;;6.50;99.90;;;;;;5060418;28;20517;-64
2021/11/15 09:47:27;;;;;;;64.05;23.52;;;6.50;99.90;;;;;;5059664;28;20037;-64
2021/11/15 09:49:53;;;;;;;64.53;25.25;;;6.60;99.90;;;;;;5059154;28;20071;-64
2021/11/15 09:52:19;;;;;;;64.93;24.83;;;6.60;99.90;;;;;;5059438;28;20041;-65
2021/11/15 09:54:45;;;;;;;62.60;24.45;;;6.70;99.90;;;;;;5051773;28;20071;-66
2021/11/15 09:57:12;;;;;;;60.30;24.02;;;6.70;99.90;;;;;;5039820;28;20109;-66
2021/11/15 09:59:37;;;;;;;58.53;23.60;;;6.70;99.90;;;;;;5057454;28;20129;-65
2021/11/15 10:02:03;;;;;;;55.35;21.55;;;6.80;99.90;;;;;;5056419;28;20816;-64
2021/11/15 10:04:28;;;;;;;60.65;23.50;;;6.60;99.90;;;;;;5028728;28;20123;-63
2021/11/15 10:06:57;;;;;;;57.30;24.08;;;6.50;99.90;;;;;;5056629;28;20105;-64
2021/11/15 10:09:22;;;;;;;62.80;23.45;;;6.50;99.90;;;;;;5055901;28;20114;-64
2021/11/15 10:11:48;;;;;;;56.95;24.05;;;6.60;99.90;;;;;;5056202;28;20036;-63
2021/11/15 10:14:13;;;;;;;61.83;23.88;;;6.70;99.90;;;;;;5055949;28;20023;-64
2021/11/15 10:16:39;;;;;;;62.95;22.98;;;6.80;99.90;;;;;;5057202;28;20385;-64
2021/11/15 10:19:04;;;;;;;74.13;24.50;;;6.80;99.90;;;;;;5057782;28;20033;-64
2021/11/15 10:21:30;;;;;;;64.50;25.40;;;6.90;99.90;;;;;;5040324;28;20040;-63
2021/11/15 10:23:55;;;;;;;55.70;23.80;;;6.90;99.90;;;;;;5058368;28;20038;-64
2021/11/15 10:26:25;;;;;;;56.85;22.35;;;7.00;99.90;;;;;;5041215;28;20432;-64
2021/11/15 10:28:51;;;;;;;59.63;24.15;;;6.90;99.90;;;;;;5056500;28;20033;-64
2021/11/15 10:31:16;;;;;;;57.13;22.75;;;6.90;99.90;;;;;;5058569;28;20047;-64
2021/11/15 10:33:42;;;;;;;55.80;23.38;;;6.90;99.90;;;;;;5058462;28;20028;-64
2021/11/15 10:36:08;;;;;;;59.50;22.23;;;7.00;99.90;;;;;;5058374;28;20442;-64
2021/11/15 10:38:33;;;;;;;52.05;20.90;;;7.10;99.90;;;;;;5039713;28;20029;-64
2021/11/15 10:40:58;;;;;;;54.83;22.27;;;7.00;99.90;;;;;;5057606;28;20032;-64
2021/11/15 10:43:24;;;;;;;57.88;21.55;;;6.90;99.90;;;;;;5057836;28;20036;-64
2021/11/15 10:45:49;;;;;;;50.70;21.17;;;6.80;99.90;;;;;;5057652;28;20040;-64
2021/11/15 10:48:20;;;;;;;55.45;23.17;;;6.80;99.90;;;;;;5056965;28;20111;-72
2021/11/15 10:50:48;;;;;;;52.25;21.23;;;6.70;99.90;;;;;;5054702;28;20086;-72
2021/11/15 10:53:18;;;;;;;53.83;21.88;;;6.60;99.90;;;;;;5053544;28;20609;-72
2021/11/15 10:55:48;;;;;;;52.67;22.45;;;6.60;99.90;;;;;;5056493;28;20094;-72
2021/11/15 10:58:14;;;;;;;48.95;19.88;;;6.50;99.90;;;;;;5057221;28;20036;-72
2021/11/15 11:00:42;;;;;;;56.10;23.55;;;6.50;99.90;;;;;;5056374;28;20036;-72
2021/11/15 11:03:07;;;;;;;52.65;21.83;;;6.60;99.90;;;;;;5057626;28;20128;-72
2021/11/15 11:05:34;;;;;;;55.53;23.15;;;6.60;99.90;;;;;;5039881;28;20851;-72
2021/11/15 11:07:59;;;;;;;57.60;22.45;;;6.70;99.90;;;;;;5021757;28;20036;-72
2021/11/15 11:10:26;;;;;;;59.85;22.98;;;6.60;99.90;;;;;;5038845;28;20031;-70
2021/11/15 11:12:51;;;;;;;51.63;19.98;;;6.60;99.90;;;;;;5039296;28;20087;-72
2021/11/15 11:15:17;;;;;;;54.88;21.20;;;6.60;99.90;;;;;;5056418;28;20121;-72
2021/11/15 11:17:42;;;;;;;53.08;21.02;;;6.70;99.90;;;;;;5057008;28;20987;-72
2021/11/15 11:20:50;;;;;;;56.38;21.48;;;6.80;99.90;;;;;;5057442;28;20037;-71
2021/11/15 11:23:15;;;;;;;50.85;21.15;;;6.80;99.90;;;;;;5050116;28;20148;-72
2021/11/15 11:25:40;;;;;;;49.35;19.80;;;6.90;99.90;;;;;;5057289;28;20542;-72
2021/11/15 11:28:06;;;;;;;55.28;20.60;;;6.90;99.90;;;;;;5055860;28;20111;-72
2021/11/15 11:30:31;;;;;;;64.22;24.48;;;7.00;99.90;;;;;;5056823;28;20040;-72
2021/11/15 11:32:57;;;;;;;59.53;23.40;;;7.10;99.90;;;;;;5056951;28;20098;-71
2021/11/15 11:35:23;;;;;;;54.88;22.17;;;7.00;99.90;;;;;;5055738;28;20033;-70
2021/11/15 11:37:48;;;;;;;56.45;23.23;;;6.90;99.90;;;;;;5056563;28;20253;-70
2021/11/15 11:40:14;;;;;;;56.90;22.05;;;6.90;99.90;;;;;;5056241;28;20566;-70
2021/11/15 11:42:39;;;;;;;55.17;21.95;;;6.90;99.90;;;;;;5055538;28;20477;-70
2021/11/15 11:45:07;;;;;;;55.00;22.75;;;7.00;99.90;;;;;;5056226;28;20491;-70
2021/11/15 11:47:33;;;;;;;55.70;22.25;;;6.90;99.90;;;;;;5058075;28;20543;-71
2021/11/15 11:49:59;;;;;;;77.63;30.65;;;6.90;99.90;;;;;;5059677;28;20114;-70
2021/11/15 11:52:28;;;;;;;60.95;23.95;;;6.80;99.90;;;;;;5059970;28;20025;-70
2021/11/15 11:54:54;;;;;;;58.03;23.48;;;6.70;99.90;;;;;;5059975;28;20020;-70
2021/11/15 11:57:19;;;;;;;63.75;25.00;;;6.70;99.90;;;;;;5061028;28;20032;-70
2021/11/15 11:59:45;;;;;;;65.72;24.88;;;6.70;99.90;;;;;;5060465;28;20050;-70
2021/11/15 12:02:11;;;;;;;67.40;23.58;;;6.70;99.90;;;;;;5059984;28;20460;-70
2021/11/15 12:04:36;;;;;;;62.45;24.33;;;6.60;99.90;;;;;;5060660;28;20040;-70
2021/11/15 12:07:02;;;;;;;65.97;23.30;;;6.50;99.90;;;;;;5056426;28;20040;-71
2021/11/15 12:09:27;;;;;;;60.08;23.13;;;6.50;99.90;;;;;;5060035;28;20038;-70
2021/11/15 12:11:52;;;;;;;62.20;24.08;;;6.40;99.90;;;;;;5042584;28;20766;-70
2021/11/15 12:14:18;;;;;;;60.47;23.65;;;6.40;99.90;;;;;;5059555;28;20082;-70
2021/11/15 12:16:43;;;;;;;64.93;23.20;;;6.50;99.90;;;;;;5060469;28;20520;-70
2021/11/15 12:19:09;;;;;;;58.85;22.02;;;6.60;99.90;;;;;;5059645;28;20024;-71
2021/11/15 12:21:36;;;;;;;67.90;24.52;;;6.50;99.90;;;;;;5058211;28;20522;-71
2021/11/15 12:24:06;;;;;;;64.00;22.63;;;6.40;99.90;;;;;;5059796;28;20032;-70
2021/11/15 12:26:31;;;;;;;63.47;23.67;;;6.40;99.90;;;;;;5055562;28;20044;-70
2021/11/15 12:29:02;;;;;;;58.80;22.60;;;6.50;99.90;;;;;;5058708;28;20032;-70